createdAt,value
2023-05-08T00:00:16.891Z,12.97
2023-05-08T00:01:16.474Z,12.99
2023-05-08T00:02:16.463Z,12.99
2023-05-08T00:03:17.155Z,12.93
2023-05-08T00:04:16.968Z,12.93
2023-05-08T00:05:16.620Z,12.94
2023-05-08T00:06:17.193Z,12.93
2023-05-08T00:07:16.745Z,12.88
2023-05-08T00:08:17.318Z,12.87
2023-05-08T00:09:16.864Z,12.88
2023-05-08T00:10:16.431Z,12.84
2023-05-08T00:11:17.009Z,12.82
2023-05-08T00:12:16.768Z,12.79
2023-05-08T00:13:16.368Z,12.76
2023-05-08T00:14:17.021Z,12.76
2023-05-08T00:15:16.657Z,12.75
2023-05-08T00:16:17.240Z,12.75
2023-05-08T00:17:16.880Z,12.70
2023-05-08T00:18:16.473Z,12.70
2023-05-08T00:19:17.039Z,12.66
2023-05-08T00:20:16.611Z,12.66
2023-05-08T00:21:17.174Z,12.65
2023-05-08T00:22:17.327Z,12.63
2023-05-08T00:23:16.867Z,12.60
2023-05-08T00:24:16.400Z,12.59
2023-05-08T00:25:16.979Z,12.58
2023-05-08T00:26:16.548Z,12.55
2023-05-08T00:27:17.089Z,12.55
2023-05-08T00:28:16.646Z,12.53
2023-05-08T00:29:17.250Z,12.51
2023-05-08T00:30:16.816Z,12.51
2023-05-08T00:31:16.403Z,12.51
2023-05-08T00:32:17.341Z,12.49
2023-05-08T00:33:17.025Z,12.48
2023-05-08T00:34:16.569Z,12.45
2023-05-08T00:35:17.101Z,12.42
2023-05-08T00:36:16.671Z,12.41
2023-05-08T00:37:17.219Z,12.41
2023-05-08T00:38:16.774Z,12.41
2023-05-08T00:39:16.347Z,12.38
2023-05-08T00:40:16.901Z,12.37
2023-05-08T00:41:16.457Z,12.35
2023-05-08T00:42:16.847Z,12.35
2023-05-08T00:43:16.406Z,12.34
2023-05-08T00:44:16.997Z,12.34
2023-05-08T00:45:16.576Z,12.31
2023-05-08T00:46:17.177Z,12.31
2023-05-08T00:47:16.787Z,12.32
2023-05-08T00:48:16.344Z,12.30
2023-05-08T00:49:16.882Z,12.27
2023-05-08T00:50:16.457Z,12.30
2023-05-08T00:51:17.007Z,12.30
2023-05-08T00:52:16.984Z,12.25
2023-05-08T00:53:16.588Z,12.21
2023-05-08T00:54:17.117Z,12.23
2023-05-08T00:55:16.701Z,12.23
2023-05-08T00:56:17.292Z,12.19
2023-05-08T00:57:16.864Z,12.16
2023-05-08T00:58:16.425Z,12.20
2023-05-08T00:59:16.988Z,12.19
2023-05-08T01:00:16.560Z,12.17
2023-05-08T01:01:17.120Z,12.08
2023-05-08T01:02:16.625Z,12.12
2023-05-08T01:03:17.313Z,12.10
2023-05-08T01:04:17.068Z,12.06
2023-05-08T01:05:16.804Z,12.04
2023-05-08T01:06:16.397Z,12.03
2023-05-08T01:07:16.952Z,12.03
2023-05-08T01:08:16.500Z,12.03
2023-05-08T01:09:17.027Z,12.01
2023-05-08T01:10:16.572Z,12.00
2023-05-08T01:11:17.118Z,11.99
2023-05-08T01:12:16.392Z,11.99
2023-05-08T01:13:17.004Z,11.97
2023-05-08T01:14:16.680Z,11.99
2023-05-08T01:15:17.251Z,11.96
2023-05-08T01:16:17.023Z,11.96
2023-05-08T01:17:16.652Z,11.96
2023-05-08T01:18:17.257Z,11.93
2023-05-08T01:19:16.786Z,11.93
2023-05-08T01:20:16.360Z,11.96
2023-05-08T01:21:16.954Z,11.93
2023-05-08T01:22:16.790Z,11.93
2023-05-08T01:23:17.320Z,11.97
2023-05-08T01:24:16.909Z,12.06
2023-05-08T01:25:16.464Z,12.06
2023-05-08T01:26:17.046Z,12.07
2023-05-08T01:27:16.585Z,12.10
2023-05-08T01:28:17.118Z,12.08
2023-05-08T01:29:16.693Z,12.03
2023-05-08T01:30:17.241Z,12.01
2023-05-08T01:31:16.802Z,12.00
2023-05-08T01:32:17.008Z,11.99
2023-05-08T01:33:16.590Z,11.99
2023-05-08T01:34:17.385Z,11.96
2023-05-08T01:35:16.907Z,11.94
2023-05-08T01:36:16.436Z,11.96
2023-05-08T01:37:16.969Z,11.88
2023-05-08T01:38:16.562Z,11.88
2023-05-08T01:39:17.126Z,11.86
2023-05-08T01:40:16.857Z,11.89
2023-05-08T01:41:16.720Z,11.86
2023-05-08T01:42:17.302Z,11.92
2023-05-08T01:43:16.886Z,11.92
2023-05-08T01:44:16.414Z,11.93
2023-05-08T01:45:16.988Z,11.86
2023-05-08T01:46:16.576Z,11.85
2023-05-08T01:47:17.163Z,11.89
2023-05-08T01:48:16.678Z,11.89
2023-05-08T01:49:17.234Z,11.82
2023-05-08T01:50:16.783Z,11.76
2023-05-08T01:51:16.382Z,11.78
2023-05-08T01:52:16.382Z,11.78
2023-05-08T01:53:16.944Z,11.76
2023-05-08T01:54:16.506Z,11.75
2023-05-08T01:55:17.058Z,11.71
2023-05-08T01:56:16.605Z,11.66
2023-05-08T01:57:17.148Z,11.66
2023-05-08T01:58:16.688Z,11.68
2023-05-08T01:59:17.317Z,11.69
2023-05-08T02:00:16.885Z,11.66
2023-05-08T02:01:16.532Z,11.68
2023-05-08T02:02:17.230Z,11.64
2023-05-08T02:03:16.825Z,11.64
2023-05-08T02:04:16.516Z,11.68
2023-05-08T02:05:17.200Z,11.65
2023-05-08T02:06:16.792Z,11.65
2023-05-08T02:07:16.360Z,11.62
2023-05-08T02:08:16.896Z,11.65
2023-05-08T02:09:16.477Z,11.66
2023-05-08T02:10:17.114Z,11.62
2023-05-08T02:11:16.696Z,11.61
2023-05-08T02:12:17.151Z,11.58
2023-05-08T02:13:16.735Z,11.59
2023-05-08T02:14:16.486Z,11.62
2023-05-08T02:15:17.025Z,11.59
2023-05-08T02:16:16.618Z,11.57
2023-05-08T02:17:17.212Z,11.54
2023-05-08T02:18:16.777Z,11.62
2023-05-08T02:19:17.347Z,11.62
2023-05-08T02:20:16.938Z,11.59
2023-05-08T02:21:16.575Z,11.58
2023-05-08T02:22:16.628Z,11.55
2023-05-08T02:23:17.217Z,11.59
2023-05-08T02:24:16.759Z,11.65
2023-05-08T02:25:17.301Z,11.65
2023-05-08T02:26:16.865Z,11.62
2023-05-08T02:27:16.478Z,11.55
2023-05-08T02:28:17.049Z,11.52
2023-05-08T02:29:16.576Z,11.55
2023-05-08T02:30:17.150Z,11.48
2023-05-08T02:31:16.708Z,11.48
2023-05-08T02:32:16.680Z,11.45
2023-05-08T02:33:16.372Z,11.43
2023-05-08T02:34:16.511Z,11.43
2023-05-08T02:35:17.139Z,11.40
2023-05-08T02:36:16.728Z,11.35
2023-05-08T02:37:16.553Z,11.38
2023-05-08T02:38:17.117Z,11.30
2023-05-08T02:39:16.709Z,11.28
2023-05-08T02:40:17.285Z,11.33
2023-05-08T02:41:16.826Z,11.37
2023-05-08T02:42:16.840Z,11.31
2023-05-08T02:43:16.385Z,11.34
2023-05-08T02:44:16.928Z,11.27
2023-05-08T02:45:16.511Z,11.26
2023-05-08T02:46:17.122Z,11.18
2023-05-08T02:47:16.741Z,11.13
2023-05-08T02:48:17.309Z,11.16
2023-05-08T02:49:16.866Z,11.16
2023-05-08T02:50:16.429Z,11.18
2023-05-08T02:51:16.978Z,11.17
2023-05-08T02:52:17.281Z,11.18
2023-05-08T02:53:16.821Z,11.17
2023-05-08T02:54:16.379Z,11.17
2023-05-08T02:55:16.944Z,11.11
2023-05-08T02:56:16.472Z,11.10
2023-05-08T02:57:17.091Z,11.02
2023-05-08T02:58:16.623Z,10.99
2023-05-08T02:59:17.203Z,11.02
2023-05-08T03:00:16.747Z,11.00
2023-05-08T03:01:17.342Z,11.03
2023-05-08T03:02:17.091Z,11.06
2023-05-08T03:03:16.887Z,11.00
2023-05-08T03:04:16.699Z,11.04
2023-05-08T03:05:17.257Z,11.03
2023-05-08T03:06:16.821Z,11.03
2023-05-08T03:07:16.417Z,11.03
2023-05-08T03:08:17.015Z,11.04
2023-05-08T03:09:16.561Z,11.03
2023-05-08T03:10:17.145Z,11.00
2023-05-08T03:11:16.716Z,11.03
2023-05-08T03:12:16.629Z,11.03
2023-05-08T03:13:17.233Z,11.06
2023-05-08T03:14:16.880Z,11.10
2023-05-08T03:15:16.403Z,11.09
2023-05-08T03:16:16.947Z,11.09
2023-05-08T03:17:16.564Z,11.06
2023-05-08T03:18:17.118Z,11.10
2023-05-08T03:19:16.674Z,11.03
2023-05-08T03:20:17.267Z,11.02
2023-05-08T03:21:16.840Z,11.03
2023-05-08T03:22:16.628Z,11.02
2023-05-08T03:23:17.216Z,11.00
2023-05-08T03:24:16.771Z,11.00
2023-05-08T03:25:16.359Z,10.98
2023-05-08T03:26:16.901Z,10.99
2023-05-08T03:27:16.448Z,11.00
2023-05-08T03:28:16.984Z,11.00
2023-05-08T03:29:16.558Z,11.00
2023-05-08T03:30:17.146Z,10.98
2023-05-08T03:31:16.720Z,10.99
2023-05-08T03:32:16.809Z,11.02
2023-05-08T03:33:16.337Z,11.00
2023-05-08T03:34:16.870Z,11.03
2023-05-08T03:35:16.438Z,11.03
2023-05-08T03:36:16.997Z,11.00
2023-05-08T03:37:16.550Z,11.00
2023-05-08T03:38:17.131Z,10.98
2023-05-08T03:39:16.667Z,10.98
2023-05-08T03:40:17.238Z,10.99
2023-05-08T03:41:16.770Z,11.00
2023-05-08T03:42:16.961Z,11.06
2023-05-08T03:43:16.533Z,11.03
2023-05-08T03:44:17.118Z,11.03
2023-05-08T03:45:16.697Z,10.96
2023-05-08T03:46:17.259Z,10.99
2023-05-08T03:47:17.010Z,10.98
2023-05-08T03:48:16.595Z,10.98
2023-05-08T03:49:17.306Z,10.96
2023-05-08T03:50:16.861Z,10.96
2023-05-08T03:51:16.407Z,10.96
2023-05-08T03:52:16.803Z,10.86
2023-05-08T03:53:16.354Z,10.89
2023-05-08T03:54:16.907Z,10.90
2023-05-08T03:55:16.531Z,10.89
2023-05-08T03:56:17.115Z,10.88
2023-05-08T03:57:16.657Z,10.90
2023-05-08T03:58:17.221Z,10.93
2023-05-08T03:59:16.779Z,10.96
2023-05-08T04:00:16.606Z,10.96
2023-05-08T04:01:17.145Z,10.96
2023-05-08T04:02:16.767Z,10.92
2023-05-08T04:03:16.487Z,10.90
2023-05-08T04:04:17.214Z,10.88
2023-05-08T04:05:16.965Z,10.93
2023-05-08T04:06:16.553Z,10.95
2023-05-08T04:07:17.098Z,10.95
2023-05-08T04:08:16.645Z,10.95
2023-05-08T04:09:17.176Z,10.98
2023-05-08T04:10:16.737Z,10.99
2023-05-08T04:11:17.295Z,10.99
2023-05-08T04:12:16.461Z,11.00
2023-05-08T04:13:17.083Z,11.03
2023-05-08T04:14:16.740Z,10.99
2023-05-08T04:15:16.406Z,10.98
2023-05-08T04:16:17.177Z,10.98
2023-05-08T04:17:16.837Z,11.00
2023-05-08T04:18:16.416Z,11.02
2023-05-08T04:19:16.950Z,11.07
2023-05-08T04:20:16.502Z,11.03
2023-05-08T04:21:17.087Z,10.89
2023-05-08T04:22:16.937Z,10.90
2023-05-08T04:23:16.492Z,10.88
2023-05-08T04:24:17.023Z,10.89
2023-05-08T04:25:16.560Z,10.82
2023-05-08T04:26:17.116Z,10.82
2023-05-08T04:27:16.675Z,10.83
2023-05-08T04:28:17.222Z,10.88
2023-05-08T04:29:16.761Z,10.92
2023-05-08T04:30:17.313Z,10.95
2023-05-08T04:31:16.883Z,10.98
2023-05-08T04:32:17.380Z,10.98
2023-05-08T04:33:17.205Z,10.96
2023-05-08T04:34:16.808Z,10.89
2023-05-08T04:35:16.381Z,10.88
2023-05-08T04:36:16.927Z,10.90
2023-05-08T04:37:16.476Z,10.92
2023-05-08T04:38:17.023Z,10.95
2023-05-08T04:39:16.590Z,10.93
2023-05-08T04:40:17.142Z,10.92
2023-05-08T04:41:16.720Z,10.98
2023-05-08T04:42:16.541Z,10.98
2023-05-08T04:43:17.076Z,11.00
2023-05-08T04:44:16.617Z,10.98
2023-05-08T04:45:17.227Z,10.98
2023-05-08T04:46:16.803Z,10.99
2023-05-08T04:47:16.432Z,11.02
2023-05-08T04:48:16.969Z,11.04
2023-05-08T04:49:16.533Z,11.06
2023-05-08T04:50:17.069Z,11.10
2023-05-08T04:51:16.626Z,11.10
2023-05-08T04:52:16.876Z,11.10
2023-05-08T04:53:16.433Z,11.04
2023-05-08T04:54:17.007Z,10.99
2023-05-08T04:55:16.593Z,11.04
2023-05-08T04:56:17.155Z,11.04
2023-05-08T04:57:16.699Z,11.09
2023-05-08T04:58:17.300Z,11.17
2023-05-08T04:59:16.839Z,11.20
2023-05-08T05:00:16.423Z,11.26
2023-05-08T05:01:17.020Z,11.31
2023-05-08T05:02:16.658Z,11.27
2023-05-08T05:03:17.292Z,11.30
2023-05-08T05:04:16.959Z,11.37
2023-05-08T05:05:16.532Z,11.37
2023-05-08T05:06:17.087Z,11.31
2023-05-08T05:07:16.648Z,11.14
2023-05-08T05:08:17.254Z,11.26
2023-05-08T05:09:16.821Z,11.28
2023-05-08T05:10:16.409Z,11.37
2023-05-08T05:11:17.060Z,11.33
2023-05-08T05:12:16.993Z,11.35
2023-05-08T05:13:16.619Z,11.41
2023-05-08T05:14:17.364Z,11.21
2023-05-08T05:15:16.948Z,11.23
2023-05-08T05:16:16.508Z,11.18
2023-05-08T05:17:17.108Z,11.17
2023-05-08T05:18:16.643Z,11.21
2023-05-08T05:19:17.164Z,11.18
2023-05-08T05:20:16.746Z,11.16
2023-05-08T05:21:17.329Z,11.09
2023-05-08T05:22:16.368Z,11.11
2023-05-08T05:23:16.998Z,11.11
2023-05-08T05:24:16.581Z,11.07
2023-05-08T05:25:17.190Z,11.14
2023-05-08T05:26:16.790Z,11.20
2023-05-08T05:27:16.356Z,11.06
2023-05-08T05:28:16.917Z,11.13
2023-05-08T05:29:16.514Z,11.18
2023-05-08T05:30:17.074Z,11.26
2023-05-08T05:31:16.664Z,11.35
2023-05-08T05:32:16.796Z,11.35
2023-05-08T05:33:16.358Z,11.37
2023-05-08T05:34:16.929Z,11.44
2023-05-08T05:35:16.484Z,11.44
2023-05-08T05:36:17.037Z,11.51
2023-05-08T05:37:16.623Z,11.59
2023-05-08T05:38:17.215Z,11.40
2023-05-08T05:39:16.764Z,11.45
2023-05-08T05:40:17.317Z,11.58
2023-05-08T05:41:16.882Z,11.47
2023-05-08T05:42:16.941Z,11.51
2023-05-08T05:43:16.503Z,11.64
2023-05-08T05:44:17.057Z,11.69
2023-05-08T05:45:16.572Z,11.71
2023-05-08T05:46:17.206Z,11.78
2023-05-08T05:47:16.931Z,11.86
2023-05-08T05:48:16.567Z,11.86
2023-05-08T05:49:17.136Z,11.94
2023-05-08T05:50:16.715Z,11.62
2023-05-08T05:51:17.276Z,11.73
2023-05-08T05:52:17.175Z,11.79
2023-05-08T05:53:16.752Z,11.79
2023-05-08T05:54:17.325Z,11.68
2023-05-08T05:55:16.915Z,11.79
2023-05-08T05:56:16.481Z,11.85
2023-05-08T05:57:17.048Z,11.94
2023-05-08T05:58:16.601Z,12.04
2023-05-08T05:59:17.174Z,12.12
2023-05-08T06:00:16.732Z,12.20
2023-05-08T06:01:17.269Z,12.21
2023-05-08T06:02:17.209Z,12.17
2023-05-08T06:03:17.088Z,12.19
2023-05-08T06:04:16.779Z,12.28
2023-05-08T06:05:16.397Z,12.28
2023-05-08T06:06:16.942Z,12.06
2023-05-08T06:07:16.508Z,12.31
2023-05-08T06:08:17.082Z,12.41
2023-05-08T06:09:16.606Z,12.44
2023-05-08T06:10:17.202Z,12.44
2023-05-08T06:11:16.772Z,12.23
2023-05-08T06:12:17.148Z,12.27
2023-05-08T06:13:16.749Z,12.38
2023-05-08T06:14:16.444Z,12.38
2023-05-08T06:15:16.984Z,12.47
2023-05-08T06:16:16.557Z,12.52
2023-05-08T06:17:17.185Z,12.59
2023-05-08T06:18:16.744Z,12.65
2023-05-08T06:19:17.586Z,12.62
2023-05-08T06:20:17.170Z,12.60
2023-05-08T06:21:16.736Z,12.59
2023-05-08T06:22:16.767Z,12.66
2023-05-08T06:23:16.324Z,12.73
2023-05-08T06:24:16.864Z,12.77
2023-05-08T06:25:16.419Z,12.63
2023-05-08T06:26:16.971Z,12.69
2023-05-08T06:27:16.520Z,12.56
2023-05-08T06:28:17.069Z,12.53
2023-05-08T06:29:16.632Z,12.31
2023-05-08T06:30:17.230Z,12.37
2023-05-08T06:31:16.873Z,12.52
2023-05-08T06:32:16.829Z,12.49
2023-05-08T06:33:16.471Z,12.60
2023-05-08T06:34:17.033Z,12.49
2023-05-08T06:35:16.572Z,12.42
2023-05-08T06:36:17.117Z,12.79
2023-05-08T06:37:16.656Z,12.93
2023-05-08T06:38:17.178Z,13.13
2023-05-08T06:39:16.724Z,12.93
2023-05-08T06:40:17.247Z,12.68
2023-05-08T06:41:16.821Z,12.68
2023-05-08T06:42:16.810Z,12.97
2023-05-08T06:43:16.397Z,13.41
2023-05-08T06:44:16.999Z,13.42
2023-05-08T06:45:16.625Z,13.76
2023-05-08T06:46:16.479Z,13.38
2023-05-08T06:47:17.114Z,13.49
2023-05-08T06:48:16.667Z,13.70
2023-05-08T06:49:17.242Z,13.45
2023-05-08T06:50:16.815Z,13.67
2023-05-08T06:51:16.348Z,13.97
2023-05-08T06:52:17.295Z,14.11
2023-05-08T06:53:16.841Z,14.33
2023-05-08T06:54:16.437Z,14.65
2023-05-08T06:55:17.005Z,14.79
2023-05-08T06:56:16.594Z,14.59
2023-05-08T06:57:17.175Z,14.51
2023-05-08T06:58:16.727Z,14.67
2023-05-08T06:59:17.301Z,14.56
2023-05-08T07:00:16.890Z,14.36
2023-05-08T07:01:16.500Z,13.80
2023-05-08T07:02:16.416Z,14.28
2023-05-08T07:03:16.996Z,14.29
2023-05-08T07:04:16.548Z,14.59
2023-05-08T07:05:17.358Z,14.73
2023-05-08T07:06:16.570Z,14.62
2023-05-08T07:07:17.159Z,14.80
2023-05-08T07:08:16.736Z,14.84
2023-05-08T07:09:17.346Z,15.02
2023-05-08T07:10:16.919Z,15.38
2023-05-08T07:11:16.482Z,15.80
2023-05-08T07:12:17.082Z,16.02
2023-05-08T07:13:16.647Z,15.98
2023-05-08T07:14:17.286Z,15.64
2023-05-08T07:15:25.125Z,15.81
2023-05-08T07:16:16.550Z,15.76
2023-05-08T07:17:17.160Z,15.84
2023-05-08T07:18:16.765Z,16.14
2023-05-08T07:19:16.314Z,16.12
2023-05-08T07:20:16.875Z,14.98
2023-05-08T07:21:16.453Z,14.74
2023-05-08T07:22:17.055Z,14.90
2023-05-08T07:23:16.691Z,15.28
2023-05-08T07:24:17.522Z,15.83
2023-05-08T07:25:17.099Z,16.08
2023-05-08T07:26:16.642Z,16.25
2023-05-08T07:27:17.235Z,16.43
2023-05-08T07:28:16.820Z,16.47
2023-05-08T07:29:16.380Z,16.47
2023-05-08T07:30:16.933Z,16.87
2023-05-08T07:31:16.492Z,16.43
2023-05-08T07:32:17.261Z,16.52
2023-05-08T07:33:16.805Z,16.04
2023-05-08T07:34:16.376Z,15.66
2023-05-08T07:35:17.123Z,15.87
2023-05-08T07:36:17.249Z,15.23
2023-05-08T07:37:16.801Z,15.60
2023-05-08T07:38:16.395Z,15.34
2023-05-08T07:39:16.940Z,15.19
2023-05-08T07:40:16.515Z,15.55
2023-05-08T07:41:17.123Z,15.97
2023-05-08T07:42:17.314Z,16.07
2023-05-08T07:43:16.871Z,15.62
2023-05-08T07:44:16.532Z,15.56
2023-05-08T07:45:17.294Z,15.72
2023-05-08T07:46:17.130Z,15.43
2023-05-08T07:47:16.938Z,15.42
2023-05-08T07:48:16.636Z,15.29
2023-05-08T07:49:17.265Z,15.19
2023-05-08T07:50:16.851Z,15.64
2023-05-08T07:51:16.403Z,15.80
2023-05-08T07:52:17.000Z,15.83
2023-05-08T07:53:16.576Z,15.59
2023-05-08T07:54:17.134Z,15.22
2023-05-08T07:55:16.708Z,15.42
2023-05-08T07:56:17.324Z,15.66
2023-05-08T07:57:16.913Z,15.18
2023-05-08T07:58:16.461Z,15.04
2023-05-08T07:59:17.032Z,15.36
2023-05-08T08:00:16.614Z,15.66
2023-05-08T08:01:17.228Z,15.78
2023-05-08T08:02:16.967Z,15.98
2023-05-08T08:03:16.663Z,15.76
2023-05-08T08:04:16.482Z,15.88
2023-05-08T08:05:17.280Z,16.01
2023-05-08T08:06:16.941Z,15.66
2023-05-08T08:07:16.560Z,15.50
2023-05-08T08:08:17.171Z,15.67
2023-05-08T08:09:16.736Z,15.91
2023-05-08T08:10:17.313Z,15.85
2023-05-08T08:11:16.905Z,15.90
2023-05-08T08:12:16.485Z,16.07
2023-05-08T08:13:17.085Z,16.01
2023-05-08T08:14:16.732Z,15.67
2023-05-08T08:15:16.344Z,15.15
2023-05-08T08:16:16.911Z,15.17
2023-05-08T08:17:16.542Z,15.38
2023-05-08T08:18:17.233Z,15.60
2023-05-08T08:19:16.863Z,15.85
2023-05-08T08:20:16.437Z,15.74
2023-05-08T08:21:17.016Z,15.63
2023-05-08T08:22:16.700Z,16.08
2023-05-08T08:23:17.263Z,16.42
2023-05-08T08:24:16.816Z,16.62
2023-05-08T08:25:16.383Z,16.46
2023-05-08T08:26:16.948Z,16.59
2023-05-08T08:27:16.495Z,16.33
2023-05-08T08:28:17.071Z,16.53
2023-05-08T08:29:16.628Z,16.43
2023-05-08T08:30:18.463Z,16.50
2023-05-08T08:31:16.623Z,16.45
2023-05-08T08:32:17.082Z,15.80
2023-05-08T08:33:18.867Z,15.98
2023-05-08T08:34:16.813Z,16.46
2023-05-08T08:35:16.862Z,16.60
2023-05-08T08:36:17.081Z,16.52
2023-05-08T08:37:16.624Z,16.64
2023-05-08T08:38:17.166Z,16.73
2023-05-08T08:39:16.721Z,16.90
2023-05-08T08:40:17.260Z,16.87
2023-05-08T08:41:16.795Z,16.98
2023-05-08T08:42:16.604Z,17.12
2023-05-08T08:43:17.148Z,17.12
2023-05-08T08:44:16.698Z,17.09
2023-05-08T08:45:17.533Z,17.04
2023-05-08T08:46:17.254Z,17.04
2023-05-08T08:47:16.941Z,16.95
2023-05-08T08:48:16.517Z,17.04
2023-05-08T08:49:17.110Z,16.97
2023-05-08T08:50:16.652Z,16.54
2023-05-08T08:51:17.235Z,16.49
2023-05-08T08:52:16.336Z,16.73
2023-05-08T08:53:16.889Z,16.81
2023-05-08T08:54:16.461Z,16.83
2023-05-08T08:55:17.018Z,16.92
2023-05-08T08:56:16.615Z,17.04
2023-05-08T08:57:17.148Z,17.30
2023-05-08T08:58:16.716Z,16.68
2023-05-08T08:59:17.297Z,16.88
2023-05-08T09:00:16.838Z,17.12
2023-05-08T09:01:16.445Z,17.07
2023-05-08T09:02:16.555Z,17.22
2023-05-08T09:03:17.321Z,17.36
2023-05-08T09:04:17.236Z,17.50
2023-05-08T09:05:17.052Z,17.80
2023-05-08T09:06:16.602Z,17.84
2023-05-08T09:07:17.142Z,17.76
2023-05-08T09:08:16.710Z,16.88
2023-05-08T09:09:17.249Z,16.86
2023-05-08T09:10:16.787Z,16.98
2023-05-08T09:11:16.322Z,16.75
2023-05-08T09:12:16.365Z,16.73
2023-05-08T09:13:18.895Z,16.67
2023-05-08T09:14:16.533Z,16.78
2023-05-08T09:15:17.118Z,16.54
2023-05-08T09:16:16.723Z,16.36
2023-05-08T09:17:16.399Z,16.71
2023-05-08T09:18:16.997Z,16.63
2023-05-08T09:19:16.655Z,16.60
2023-05-08T09:20:17.231Z,16.91
2023-05-08T09:21:16.772Z,17.22
2023-05-08T09:22:16.448Z,17.33
2023-05-08T09:23:17.008Z,17.56
2023-05-08T09:24:16.567Z,17.66
2023-05-08T09:25:17.107Z,17.39
2023-05-08T09:26:16.657Z,17.56
2023-05-08T09:27:17.225Z,17.85
2023-05-08T09:28:16.754Z,17.85
2023-05-08T09:29:17.329Z,17.80
2023-05-08T09:30:16.901Z,17.84
2023-05-08T09:31:16.509Z,17.87
2023-05-08T09:32:17.320Z,17.87
2023-05-08T09:33:16.997Z,18.05
2023-05-08T09:34:16.536Z,18.05
2023-05-08T09:35:17.202Z,17.91
2023-05-08T09:36:16.957Z,18.40
2023-05-08T09:37:16.497Z,18.30
2023-05-08T09:38:17.068Z,18.34
2023-05-08T09:39:16.610Z,18.26
2023-05-08T09:40:17.160Z,17.63
2023-05-08T09:41:16.754Z,17.81
2023-05-08T09:42:16.322Z,17.99
2023-05-08T09:43:16.885Z,18.12
2023-05-08T09:44:16.506Z,18.39
2023-05-08T09:45:17.063Z,18.77
2023-05-08T09:46:16.601Z,18.84
2023-05-08T09:47:17.288Z,18.84
2023-05-08T09:48:16.840Z,18.95
2023-05-08T09:49:16.373Z,18.75
2023-05-08T09:50:17.227Z,18.88
2023-05-08T09:51:16.783Z,19.22
2023-05-08T09:52:16.629Z,19.44
2023-05-08T09:53:17.219Z,19.41
2023-05-08T09:54:16.775Z,19.46
2023-05-08T09:55:16.333Z,19.68
2023-05-08T09:56:16.906Z,19.65
2023-05-08T09:57:16.467Z,19.67
2023-05-08T09:58:17.080Z,19.79
2023-05-08T09:59:16.629Z,19.12
2023-05-08T10:00:17.318Z,19.03
2023-05-08T10:01:17.326Z,19.43
2023-05-08T10:02:16.722Z,19.68
2023-05-08T10:03:17.312Z,19.69
2023-05-08T10:04:16.892Z,19.22
2023-05-08T10:05:16.464Z,19.76
2023-05-08T10:06:17.092Z,19.93
2023-05-08T10:07:16.614Z,19.16
2023-05-08T10:08:17.182Z,17.70
2023-05-08T10:09:16.734Z,17.54
2023-05-08T10:10:17.297Z,17.30
2023-05-08T10:11:16.876Z,17.66
2023-05-08T10:12:16.958Z,18.16
2023-05-08T10:13:16.654Z,18.40
2023-05-08T10:14:16.341Z,19.23
2023-05-08T10:15:16.896Z,19.71
2023-05-08T10:16:16.547Z,19.89
2023-05-08T10:17:16.471Z,19.72
2023-05-08T10:18:17.235Z,19.44
2023-05-08T10:19:16.788Z,19.58
2023-05-08T10:20:18.215Z,19.72
2023-05-08T10:21:16.611Z,19.96
2023-05-08T10:22:16.713Z,19.40
2023-05-08T10:23:17.275Z,19.17
2023-05-08T10:24:16.964Z,19.50
2023-05-08T10:25:16.517Z,19.75
2023-05-08T10:26:17.094Z,19.14
2023-05-08T10:27:16.644Z,19.27
2023-05-08T10:28:17.191Z,19.09
2023-05-08T10:29:16.847Z,18.78
2023-05-08T10:30:16.386Z,18.89
2023-05-08T10:31:16.949Z,19.23
2023-05-08T10:32:16.930Z,19.39
2023-05-08T10:33:16.488Z,19.50
2023-05-08T10:34:17.082Z,19.64
2023-05-08T10:35:16.648Z,19.20
2023-05-08T10:36:17.205Z,19.48
2023-05-08T10:37:16.749Z,19.53
2023-05-08T10:38:17.336Z,19.10
2023-05-08T10:39:16.942Z,19.10
2023-05-08T10:40:16.558Z,18.58
2023-05-08T10:41:17.333Z,18.89
2023-05-08T10:42:16.580Z,19.14
2023-05-08T10:43:17.166Z,19.06
2023-05-08T10:44:16.756Z,19.01
2023-05-08T10:45:17.319Z,18.89
2023-05-08T10:46:16.853Z,19.06
2023-05-08T10:47:16.503Z,19.44
2023-05-08T10:48:17.043Z,19.44
2023-05-08T10:49:16.604Z,19.02
2023-05-08T10:50:17.263Z,18.88
2023-05-08T10:51:16.904Z,18.39
2023-05-08T10:52:16.416Z,18.37
2023-05-08T10:53:17.043Z,18.19
2023-05-08T10:54:16.665Z,18.34
2023-05-08T10:55:17.312Z,18.11
2023-05-08T10:56:16.990Z,17.78
2023-05-08T10:57:16.621Z,17.98
2023-05-08T10:58:17.223Z,18.09
2023-05-08T10:59:16.864Z,18.19
2023-05-08T11:00:16.686Z,18.25
2023-05-08T11:01:16.466Z,18.43
2023-05-08T11:02:16.994Z,18.64
2023-05-08T11:03:27.611Z,18.75
2023-05-08T11:04:17.333Z,18.67
2023-05-08T11:05:17.212Z,18.30
2023-05-08T11:06:16.951Z,18.32
2023-05-08T11:07:16.530Z,18.44
2023-05-08T11:08:17.143Z,18.86
2023-05-08T11:09:16.701Z,18.77
2023-05-08T11:10:17.324Z,18.85
2023-05-08T11:11:16.953Z,18.88
2023-05-08T11:12:16.550Z,19.10
2023-05-08T11:13:17.142Z,18.61
2023-05-08T11:14:16.808Z,18.26
2023-05-08T11:15:16.361Z,18.53
2023-05-08T11:16:16.937Z,18.68
2023-05-08T11:17:16.485Z,18.98
2023-05-08T11:18:17.177Z,18.98
2023-05-08T11:19:16.850Z,18.99
2023-05-08T11:20:16.771Z,19.06
2023-05-08T11:21:16.988Z,19.29
2023-05-08T11:22:17.082Z,19.47
2023-05-08T11:23:16.764Z,19.54
2023-05-08T11:24:17.375Z,19.39
2023-05-08T11:25:16.920Z,19.64
2023-05-08T11:26:16.593Z,19.88
2023-05-08T11:27:17.186Z,20.15
2023-05-08T11:28:16.774Z,19.92
2023-05-08T11:29:17.319Z,19.39
2023-05-08T11:30:16.883Z,19.36
2023-05-08T11:31:16.472Z,19.56
2023-05-08T11:32:17.013Z,18.92
2023-05-08T11:33:16.594Z,19.06
2023-05-08T11:34:17.194Z,19.34
2023-05-08T11:35:16.813Z,19.71
2023-05-08T11:36:16.462Z,19.67
2023-05-08T11:37:17.081Z,19.95
2023-05-08T11:38:16.652Z,19.65
2023-05-08T11:39:17.203Z,19.25
2023-05-08T11:40:16.854Z,19.57
2023-05-08T11:41:16.411Z,19.84
2023-05-08T11:42:16.923Z,19.93
2023-05-08T11:43:16.457Z,19.36
2023-05-08T11:44:17.024Z,19.41
2023-05-08T11:45:16.667Z,19.58
2023-05-08T11:46:17.329Z,19.58
2023-05-08T11:47:17.204Z,19.13
2023-05-08T11:48:17.035Z,19.27
2023-05-08T11:49:16.648Z,19.14
2023-05-08T11:50:17.226Z,18.91
2023-05-08T11:51:17.172Z,18.67
2023-05-08T11:52:16.519Z,18.98
2023-05-08T11:53:17.082Z,18.49
2023-05-08T11:54:16.860Z,18.44
2023-05-08T11:55:16.426Z,18.61
2023-05-08T11:56:16.953Z,18.71
2023-05-08T11:57:16.527Z,18.57
2023-05-08T11:58:17.090Z,18.60
2023-05-08T11:59:16.671Z,18.88
2023-05-08T12:00:16.633Z,19.02
2023-05-08T12:01:17.095Z,18.81
2023-05-08T12:02:16.586Z,18.67
2023-05-08T12:03:17.380Z,18.50
2023-05-08T12:04:16.689Z,18.60
2023-05-08T12:05:16.674Z,18.51
2023-05-08T12:06:17.260Z,17.70
2023-05-08T12:07:16.822Z,17.74
2023-05-08T12:08:16.495Z,17.91
2023-05-08T12:09:17.036Z,17.88
2023-05-08T12:10:17.272Z,17.73
2023-05-08T12:11:16.813Z,17.80
2023-05-08T12:12:16.896Z,17.80
2023-05-08T12:13:16.520Z,18.06
2023-05-08T12:14:17.182Z,18.19
2023-05-08T12:15:16.768Z,18.29
2023-05-08T12:16:16.332Z,18.32
2023-05-08T12:17:16.965Z,18.17
2023-05-08T12:18:16.650Z,18.37
2023-05-08T12:19:17.295Z,18.57
2023-05-08T12:20:17.313Z,18.58
2023-05-08T12:21:16.680Z,18.66
2023-05-08T12:22:17.314Z,18.09
2023-05-08T12:23:17.006Z,17.94
2023-05-08T12:24:16.595Z,17.70
2023-05-08T12:25:17.133Z,17.71
2023-05-08T12:26:16.699Z,17.98
2023-05-08T12:27:16.324Z,17.78
2023-05-08T12:28:16.899Z,17.66
2023-05-08T12:29:16.531Z,17.87
2023-05-08T12:30:17.505Z,17.81
2023-05-08T12:31:17.086Z,17.98
2023-05-08T12:32:16.947Z,17.92
2023-05-08T12:33:16.544Z,17.92
2023-05-08T12:34:17.223Z,18.11
2023-05-08T12:35:16.784Z,18.09
2023-05-08T12:36:16.392Z,17.95
2023-05-08T12:37:16.936Z,17.89
2023-05-08T12:38:16.480Z,17.95
2023-05-08T12:39:17.038Z,17.84
2023-05-08T12:40:16.630Z,18.12
2023-05-08T12:41:17.209Z,18.32
2023-05-08T12:42:16.491Z,18.37
2023-05-08T12:43:17.096Z,18.50
2023-05-08T12:44:16.657Z,18.66
2023-05-08T12:45:17.269Z,18.32
2023-05-08T12:46:16.885Z,18.50
2023-05-08T12:47:16.585Z,18.67
2023-05-08T12:48:17.137Z,18.71
2023-05-08T12:49:16.793Z,18.32
2023-05-08T12:50:16.443Z,18.08
2023-05-08T12:51:17.072Z,18.26
2023-05-08T12:52:16.840Z,18.17